snow got you down?


#1

We are getting the first sand storm of the season.

OEJN 221000Z 17020KT 3000 BLSA NSC 32/11 Q1010 TEMPO 2000

John in Saudi


#2

Sand got you down?


#3

gets into EVERYTHING :confused:


#4

For those who have never experienced it:

Stay safe John.


#5

I lived through a volcanic eruption that looked something like that, only darker.


#6

Just like an Arizona desert monsoon haboob


#7

No wonder those Saudi flights I used to work looked like the sand toys my kids play with at the beach. :wink:

I don’t miss those flying dumpsters.


#8

Been there, done that. 3 years at Altus AFB Oklahoma.